createdAt,value
2018-10-12T00:01:53.640Z,13.39
2018-10-12T00:04:22.616Z,13.43
2018-10-12T00:06:51.582Z,13.37
2018-10-12T00:09:20.732Z,13.36
2018-10-12T00:11:49.604Z,13.41
2018-10-12T00:14:18.379Z,13.40
2018-10-12T00:16:47.182Z,13.36
2018-10-12T00:19:16.043Z,13.32
2018-10-12T00:21:45.260Z,13.28
2018-10-12T00:24:14.079Z,13.27
2018-10-12T00:26:42.949Z,13.22
2018-10-12T00:29:11.792Z,13.27
2018-10-12T00:31:40.731Z,13.28
2018-10-12T00:34:09.605Z,13.26
2018-10-12T00:36:38.401Z,13.24
2018-10-12T00:39:08.447Z,13.29
2018-10-12T00:41:37.244Z,13.40
2018-10-12T00:44:06.192Z,13.60
2018-10-12T00:46:35.040Z,13.52
2018-10-12T00:49:03.929Z,13.41
2018-10-12T00:51:32.763Z,13.33
2018-10-12T00:54:01.639Z,13.29
2018-10-12T00:56:30.512Z,13.27
2018-10-12T00:58:59.429Z,13.24
2018-10-12T01:01:28.205Z,13.18
2018-10-12T01:03:57.097Z,13.17
2018-10-12T01:06:25.925Z,13.19
2018-10-12T01:08:55.223Z,13.17
2018-10-12T01:11:23.981Z,13.16
2018-10-12T01:13:53.152Z,13.25
2018-10-12T01:16:21.986Z,13.19
2018-10-12T01:18:51.131Z,13.11
2018-10-12T01:21:20.472Z,13.06
2018-10-12T01:23:49.440Z,13.01
2018-10-12T01:26:18.348Z,12.99
2018-10-12T01:28:53.792Z,13.04
2018-10-12T01:31:23.016Z,13.01
2018-10-12T01:33:51.975Z,13.03
2018-10-12T01:36:20.881Z,13.08
2018-10-12T01:38:49.749Z,13.12
2018-10-12T01:41:18.671Z,13.08
2018-10-12T01:43:48.043Z,12.98
2018-10-12T01:46:16.969Z,12.97
2018-10-12T01:48:46.113Z,13.03
2018-10-12T01:51:14.987Z,12.97
2018-10-12T01:53:43.769Z,12.97
2018-10-12T01:56:12.707Z,12.92
2018-10-12T01:58:41.625Z,12.87
2018-10-12T02:01:11.121Z,12.88
2018-10-12T02:03:39.967Z,12.85
2018-10-12T02:06:08.860Z,12.85
2018-10-12T02:08:37.940Z,12.90
2018-10-12T02:11:06.981Z,12.95
2018-10-12T02:13:35.824Z,12.87
2018-10-12T02:16:04.791Z,12.79
2018-10-12T02:18:33.613Z,12.75
2018-10-12T02:21:02.896Z,12.66
2018-10-12T02:23:31.734Z,12.63
2018-10-12T02:26:00.681Z,12.62
2018-10-12T02:28:29.530Z,12.60
2018-10-12T02:30:58.372Z,12.57
2018-10-12T02:33:27.275Z,12.60
2018-10-12T02:35:56.073Z,12.53
2018-10-12T02:38:25.256Z,12.57
2018-10-12T02:40:54.132Z,12.61
2018-10-12T02:43:23.004Z,12.66
2018-10-12T02:45:51.924Z,12.73
2018-10-12T02:48:20.772Z,12.68
2018-10-12T02:50:49.561Z,12.71
2018-10-12T02:53:18.593Z,12.80
2018-10-12T02:55:47.505Z,12.70
2018-10-12T02:58:16.396Z,12.76
2018-10-12T03:00:45.210Z,12.60
2018-10-12T03:03:14.065Z,12.58
2018-10-12T03:05:43.006Z,12.56
2018-10-12T03:08:11.824Z,12.62
2018-10-12T03:10:40.676Z,12.66
2018-10-12T03:13:09.512Z,12.61
2018-10-12T03:15:38.340Z,12.57
2018-10-12T03:18:07.268Z,12.57
2018-10-12T03:20:36.119Z,12.57
2018-10-12T03:23:05.124Z,12.49
2018-10-12T03:25:34.009Z,12.45
2018-10-12T03:28:23.262Z,12.36
2018-10-12T03:30:52.260Z,12.25
2018-10-12T03:33:21.690Z,12.27
2018-10-12T03:35:50.735Z,12.30
2018-10-12T03:38:19.591Z,12.21
2018-10-12T03:40:48.490Z,12.27
2018-10-12T03:43:17.344Z,12.28
2018-10-12T03:45:46.364Z,12.29
2018-10-12T03:48:15.252Z,12.33
2018-10-12T03:50:44.173Z,12.48
2018-10-12T03:53:13.458Z,12.48
2018-10-12T03:55:42.397Z,12.43
2018-10-12T03:58:11.353Z,12.47
2018-10-12T04:00:40.151Z,12.48
2018-10-12T04:03:09.039Z,12.57
2018-10-12T04:05:37.908Z,12.62
2018-10-12T04:08:06.805Z,12.61
2018-10-12T04:10:35.736Z,12.49
2018-10-12T04:13:04.559Z,12.46
2018-10-12T04:15:33.489Z,12.45
2018-10-12T04:18:02.272Z,12.43
2018-10-12T04:20:31.151Z,12.40
2018-10-12T04:23:00.302Z,12.46
2018-10-12T04:25:29.288Z,12.47
2018-10-12T04:28:00.588Z,12.55
2018-10-12T04:30:29.455Z,12.45
2018-10-12T04:32:58.330Z,12.48
2018-10-12T04:35:27.204Z,12.41
2018-10-12T04:37:56.067Z,12.41
2018-10-12T04:41:15.320Z,12.40
2018-10-12T04:43:45.180Z,12.32
2018-10-12T04:46:18.135Z,12.29
2018-10-12T04:48:48.967Z,12.33
2018-10-12T04:51:33.790Z,12.31
2018-10-12T04:54:02.808Z,12.20
2018-10-12T04:56:31.836Z,12.27
2018-10-12T04:59:00.751Z,12.20
2018-10-12T05:01:30.077Z,12.17
2018-10-12T05:03:59.010Z,12.17
2018-10-12T05:06:27.829Z,12.03
2018-10-12T05:08:56.897Z,12.09
2018-10-12T05:11:25.763Z,11.94
2018-10-12T05:13:54.664Z,12.00
2018-10-12T05:16:23.504Z,12.01
2018-10-12T05:18:52.341Z,11.95
2018-10-12T05:21:21.227Z,11.94
2018-10-12T05:23:50.080Z,11.94
2018-10-12T05:26:18.919Z,11.94
2018-10-12T05:28:47.940Z,11.96
2018-10-12T05:31:16.913Z,11.97
2018-10-12T05:33:45.913Z,11.97
2018-10-12T05:36:14.792Z,11.99
2018-10-12T05:38:43.669Z,11.97
2018-10-12T05:41:12.523Z,11.93
2018-10-12T05:43:41.549Z,11.84
2018-10-12T05:46:10.465Z,11.89
2018-10-12T05:48:56.439Z,11.99
2018-10-12T05:51:25.474Z,11.83
2018-10-12T05:53:54.480Z,11.75
2018-10-12T05:56:32.663Z,11.69
2018-10-12T05:59:01.852Z,11.67
2018-10-12T06:01:30.873Z,11.80
2018-10-12T06:03:59.691Z,11.89
2018-10-12T06:06:29.183Z,11.89
2018-10-12T06:08:58.069Z,11.92
2018-10-12T06:11:27.077Z,11.94
2018-10-12T06:13:55.858Z,12.07
2018-10-12T06:16:24.788Z,12.05
2018-10-12T06:18:53.636Z,12.07
2018-10-12T06:21:22.605Z,12.18
2018-10-12T06:23:51.442Z,12.06
2018-10-12T06:26:20.312Z,12.04
2018-10-12T06:28:49.189Z,12.10
2018-10-12T06:31:18.249Z,12.20
2018-10-12T06:33:47.142Z,12.21
2018-10-12T06:36:16.091Z,12.19
2018-10-12T06:38:44.904Z,12.14
2018-10-12T06:41:13.786Z,12.17
2018-10-12T06:43:42.621Z,12.21
2018-10-12T06:46:11.614Z,12.21
2018-10-12T06:48:40.466Z,12.38
2018-10-12T06:51:09.449Z,12.57
2018-10-12T06:53:38.333Z,12.75
2018-10-12T06:56:07.281Z,12.85
2018-10-12T06:58:36.166Z,12.94
2018-10-12T07:01:05.040Z,13.06
2018-10-12T07:03:34.106Z,13.16
2018-10-12T07:06:03.317Z,13.24
2018-10-12T07:08:32.232Z,13.34
2018-10-12T07:11:01.316Z,13.44
2018-10-12T07:13:30.226Z,13.53
2018-10-12T07:15:59.012Z,13.63
2018-10-12T07:18:27.911Z,13.75
2018-10-12T07:20:57.148Z,13.88
2018-10-12T07:23:25.957Z,13.99
2018-10-12T07:25:54.805Z,14.15
2018-10-12T07:28:23.644Z,14.21
2018-10-12T07:30:52.465Z,14.36
2018-10-12T07:33:21.419Z,14.41
2018-10-12T07:35:50.204Z,14.57
2018-10-12T07:38:19.041Z,14.67
2018-10-12T07:40:47.851Z,14.90
2018-10-12T07:43:16.714Z,14.97
2018-10-12T07:45:45.725Z,15.15
2018-10-12T07:48:14.592Z,15.24
2018-10-12T07:50:43.374Z,15.56
2018-10-12T07:53:12.293Z,15.70
2018-10-12T07:55:41.117Z,15.81
2018-10-12T07:58:10.339Z,15.91
2018-10-12T08:00:39.218Z,16.27
2018-10-12T08:03:08.037Z,16.38
2018-10-12T08:05:36.895Z,16.42
2018-10-12T08:08:05.761Z,16.57
2018-10-12T08:10:34.647Z,16.81
2018-10-12T08:13:03.493Z,17.07
2018-10-12T08:15:32.405Z,17.09
2018-10-12T08:18:01.389Z,17.46
2018-10-12T08:20:30.431Z,17.41
2018-10-12T08:22:59.378Z,17.44
2018-10-12T08:25:28.332Z,17.62
2018-10-12T08:27:57.200Z,17.67
2018-10-12T08:30:26.174Z,17.69
2018-10-12T08:32:55.275Z,17.95
2018-10-12T08:35:24.213Z,18.03
2018-10-12T08:37:52.999Z,18.07
2018-10-12T08:40:21.830Z,18.36
2018-10-12T08:42:50.779Z,18.41
2018-10-12T08:45:19.647Z,18.46
2018-10-12T08:47:48.528Z,18.53
2018-10-12T08:50:17.375Z,18.67
2018-10-12T08:52:46.177Z,18.81
2018-10-12T08:55:15.388Z,18.71
2018-10-12T08:57:44.459Z,18.69
2018-10-12T09:00:14.092Z,18.66
2018-10-12T09:02:42.911Z,18.71
2018-10-12T09:05:11.742Z,18.72
2018-10-12T09:07:40.614Z,18.96
2018-10-12T09:10:09.696Z,19.06
2018-10-12T09:12:38.905Z,18.93
2018-10-12T09:15:08.038Z,19.01
2018-10-12T09:17:36.980Z,18.95
2018-10-12T09:20:06.563Z,19.05
2018-10-12T09:22:35.452Z,19.07
2018-10-12T09:25:04.653Z,19.33
2018-10-12T09:27:33.561Z,19.44
2018-10-12T09:30:02.462Z,19.52
2018-10-12T09:32:31.296Z,19.56
2018-10-12T09:35:00.113Z,19.70
2018-10-12T09:37:29.077Z,19.63
2018-10-12T09:39:57.898Z,19.85
2018-10-12T09:42:26.793Z,19.75
2018-10-12T09:44:55.885Z,19.72
2018-10-12T09:47:24.823Z,19.90
2018-10-12T09:49:53.707Z,19.98
2018-10-12T09:52:22.492Z,19.88
2018-10-12T09:54:51.356Z,20.18
2018-10-12T09:57:38.896Z,20.11
2018-10-12T10:00:13.369Z,20.18
2018-10-12T10:02:47.612Z,20.25
2018-10-12T10:05:17.151Z,20.32
2018-10-12T10:07:46.055Z,20.53
2018-10-12T10:10:15.169Z,20.56
2018-10-12T10:12:43.948Z,20.75
2018-10-12T10:15:12.800Z,20.58
2018-10-12T10:17:41.685Z,20.61
2018-10-12T10:20:10.808Z,20.63
2018-10-12T10:22:39.656Z,20.91
2018-10-12T10:25:08.724Z,20.99
2018-10-12T10:27:37.456Z,20.84
2018-10-12T10:30:06.472Z,20.87
2018-10-12T10:32:35.282Z,20.84
2018-10-12T10:35:04.288Z,20.79
2018-10-12T10:37:33.070Z,20.94
2018-10-12T10:40:01.960Z,21.03
2018-10-12T10:42:30.801Z,21.05
2018-10-12T10:45:00.049Z,21.23
2018-10-12T10:47:29.168Z,21.38
2018-10-12T10:49:58.162Z,21.33
2018-10-12T10:52:27.250Z,21.27
2018-10-12T10:54:56.106Z,21.29
2018-10-12T10:57:24.986Z,21.26
2018-10-12T10:59:53.903Z,21.37
2018-10-12T11:02:22.765Z,21.38
2018-10-12T11:04:51.630Z,21.43
2018-10-12T11:07:21.435Z,21.43
2018-10-12T11:09:50.281Z,21.46
2018-10-12T11:12:19.218Z,21.53
2018-10-12T11:14:47.940Z,21.73
2018-10-12T11:17:16.834Z,21.82
2018-10-12T11:19:45.898Z,21.67
2018-10-12T11:22:14.763Z,21.96
2018-10-12T11:24:43.731Z,21.83
2018-10-12T11:27:12.590Z,21.82
2018-10-12T11:29:41.444Z,21.99
2018-10-12T11:32:10.271Z,21.99
2018-10-12T11:34:39.081Z,21.98
2018-10-12T11:37:08.012Z,22.03
2018-10-12T11:39:36.826Z,22.23
2018-10-12T11:42:05.704Z,22.35
2018-10-12T11:44:34.482Z,22.42
2018-10-12T11:47:03.331Z,22.42
2018-10-12T11:49:32.181Z,22.40
2018-10-12T11:52:01.188Z,22.36
2018-10-12T11:54:29.980Z,22.38
2018-10-12T11:56:58.773Z,22.51
2018-10-12T11:59:27.591Z,22.51
2018-10-12T12:01:56.644Z,22.41
2018-10-12T12:04:25.505Z,22.54
2018-10-12T12:06:54.316Z,22.60
2018-10-12T12:09:23.612Z,22.61
2018-10-12T12:11:52.977Z,22.63
2018-10-12T12:14:22.396Z,22.80
2018-10-12T12:16:51.509Z,22.89
2018-10-12T12:19:20.407Z,22.77
2018-10-12T12:21:49.263Z,22.84
2018-10-12T12:24:19.431Z,22.83
2018-10-12T12:26:48.464Z,22.93
2018-10-12T12:29:17.608Z,22.94
2018-10-12T12:31:46.479Z,23.15
2018-10-12T12:34:15.525Z,23.02
2018-10-12T12:36:44.536Z,23.10
2018-10-12T12:39:13.495Z,23.13
2018-10-12T12:41:42.396Z,23.06
2018-10-12T12:44:11.283Z,23.13
2018-10-12T12:46:40.103Z,23.13
2018-10-12T12:49:09.316Z,23.13
2018-10-12T12:51:37.862Z,23.11
2018-10-12T12:54:06.726Z,22.98
2018-10-12T12:56:35.616Z,23.33
2018-10-12T12:59:04.776Z,23.21
2018-10-12T13:01:33.647Z,23.19
2018-10-12T13:04:02.521Z,23.17
2018-10-12T13:06:31.979Z,23.19
2018-10-12T13:09:00.708Z,23.21
2018-10-12T13:11:29.842Z,23.24
2018-10-12T13:13:58.620Z,23.29
2018-10-12T13:16:27.495Z,23.38
2018-10-12T13:18:56.318Z,23.46
2018-10-12T13:21:25.192Z,23.34
2018-10-12T13:23:54.011Z,23.64
2018-10-12T13:26:23.289Z,23.51
2018-10-12T13:28:52.388Z,23.47
2018-10-12T13:31:21.290Z,23.76
2018-10-12T13:33:50.081Z,23.65
2018-10-12T13:36:18.948Z,23.60
2018-10-12T13:38:47.736Z,23.60
2018-10-12T13:41:16.670Z,23.55
2018-10-12T13:43:45.485Z,23.59
2018-10-12T13:46:14.383Z,23.57
2018-10-12T13:48:43.249Z,23.48
2018-10-12T13:51:12.140Z,23.31
2018-10-12T13:53:41.008Z,23.42
2018-10-12T13:56:09.844Z,23.42
2018-10-12T13:58:38.718Z,23.57
2018-10-12T14:01:07.531Z,23.43
2018-10-12T14:03:36.401Z,23.40
2018-10-12T14:06:05.353Z,23.27
2018-10-12T14:08:34.181Z,23.25
2018-10-12T14:11:02.980Z,23.14
2018-10-12T14:13:31.827Z,23.22
2018-10-12T14:16:00.633Z,23.36
2018-10-12T14:18:29.635Z,23.24
2018-10-12T14:20:58.439Z,23.18
2018-10-12T14:23:27.292Z,23.10
2018-10-12T14:25:56.078Z,23.18
2018-10-12T14:28:24.943Z,23.00
2018-10-12T14:30:53.900Z,23.02
2018-10-12T14:33:22.751Z,23.04
2018-10-12T14:35:51.717Z,23.08
2018-10-12T14:38:20.480Z,23.00
2018-10-12T14:40:49.271Z,23.14
2018-10-12T14:43:18.296Z,23.02
2018-10-12T14:45:47.129Z,22.93
2018-10-12T14:48:16.015Z,22.81
2018-10-12T14:50:44.859Z,22.80
2018-10-12T14:53:13.766Z,22.76
2018-10-12T14:55:42.659Z,22.65
2018-10-12T14:58:11.449Z,22.81
2018-10-12T15:00:40.294Z,22.65
2018-10-12T15:03:09.049Z,22.65
2018-10-12T15:05:37.926Z,22.69
2018-10-12T15:08:07.085Z,22.63
2018-10-12T15:10:36.268Z,22.48
2018-10-12T15:13:05.173Z,22.45
2018-10-12T15:15:34.032Z,22.56
2018-10-12T15:18:02.876Z,22.38
2018-10-12T15:20:32.029Z,22.21
2018-10-12T15:23:00.833Z,22.18
2018-10-12T15:25:29.709Z,22.14
2018-10-12T15:27:58.512Z,22.15
2018-10-12T15:30:27.446Z,21.99
2018-10-12T15:32:56.281Z,22.04
2018-10-12T15:35:25.170Z,21.86
2018-10-12T15:37:54.256Z,21.98
2018-10-12T15:40:23.172Z,21.76
2018-10-12T15:42:52.114Z,21.86
2018-10-12T15:45:21.021Z,21.79
2018-10-12T15:47:49.965Z,21.68
2018-10-12T15:50:18.805Z,21.66
2018-10-12T15:52:47.609Z,21.60
2018-10-12T15:55:16.494Z,21.70
2018-10-12T15:57:45.392Z,21.47
2018-10-12T16:00:14.312Z,21.35
2018-10-12T16:02:43.215Z,21.23
2018-10-12T16:05:12.042Z,21.08
2018-10-12T16:07:40.993Z,21.03
2018-10-12T16:10:09.964Z,20.89
2018-10-12T16:12:38.815Z,20.87
2018-10-12T16:15:07.683Z,20.76
2018-10-12T16:17:36.574Z,20.66
2018-10-12T16:20:05.529Z,20.58
2018-10-12T16:22:34.498Z,20.54
2018-10-12T16:25:20.040Z,20.49
2018-10-12T16:27:48.875Z,20.44
2018-10-12T16:30:18.057Z,20.47
2018-10-12T16:32:46.964Z,20.39
2018-10-12T16:35:15.780Z,20.29
2018-10-12T16:37:44.613Z,20.27
2018-10-12T16:40:13.465Z,20.18
2018-10-12T16:42:42.263Z,20.16
2018-10-12T16:45:17.430Z,20.06
2018-10-12T16:47:45.984Z,20.08
2018-10-12T16:50:14.845Z,19.85
2018-10-12T16:52:43.665Z,19.92
2018-10-12T16:55:12.970Z,19.76
2018-10-12T16:57:41.845Z,19.65
2018-10-12T17:00:10.661Z,19.58
2018-10-12T17:02:39.487Z,19.48
2018-10-12T17:05:08.348Z,19.49
2018-10-12T17:07:37.228Z,19.43
2018-10-12T17:10:06.151Z,19.33
2018-10-12T17:12:34.993Z,19.27
2018-10-12T17:15:03.996Z,19.29
2018-10-12T17:17:32.751Z,19.26
2018-10-12T17:20:01.653Z,19.14
2018-10-12T17:22:30.471Z,19.04
2018-10-12T17:24:59.377Z,18.94
2018-10-12T17:27:28.207Z,18.91
2018-10-12T17:29:57.120Z,18.93
2018-10-12T17:32:25.960Z,18.92
2018-10-12T17:34:54.807Z,18.88
2018-10-12T17:37:23.620Z,18.96
2018-10-12T17:39:52.584Z,18.89
2018-10-12T17:42:21.411Z,18.83
2018-10-12T17:44:50.319Z,18.74
2018-10-12T17:47:19.188Z,18.69
2018-10-12T17:49:47.983Z,18.62
2018-10-12T17:52:16.877Z,18.64
2018-10-12T17:54:45.707Z,18.62
2018-10-12T17:57:14.995Z,18.49
2018-10-12T17:59:44.069Z,18.46
2018-10-12T18:02:12.985Z,18.44
2018-10-12T18:04:41.805Z,18.44
2018-10-12T18:07:10.669Z,18.37
2018-10-12T18:09:39.565Z,18.46
2018-10-12T18:12:08.424Z,18.45
2018-10-12T18:14:37.351Z,18.49
2018-10-12T18:17:06.379Z,18.31
2018-10-12T18:19:35.271Z,18.26
2018-10-12T18:22:05.373Z,18.26
2018-10-12T18:24:34.200Z,18.23
2018-10-12T18:27:03.079Z,18.28
2018-10-12T18:29:32.353Z,18.33
2018-10-12T18:32:01.175Z,18.22
2018-10-12T18:34:30.034Z,18.11
2018-10-12T18:37:01.269Z,18.13
2018-10-12T18:39:29.997Z,18.09
2018-10-12T18:41:58.883Z,18.14
2018-10-12T18:44:28.224Z,18.04
2018-10-12T18:46:57.695Z,18.02
2018-10-12T18:49:26.493Z,17.96
2018-10-12T18:51:55.330Z,17.89
2018-10-12T18:54:24.466Z,17.92
2018-10-12T18:56:53.365Z,17.90
2018-10-12T18:59:22.294Z,17.80
2018-10-12T19:01:51.604Z,17.77
2018-10-12T19:04:20.482Z,17.81
2018-10-12T19:06:49.645Z,17.74
2018-10-12T19:09:19.222Z,17.68
2018-10-12T19:11:48.155Z,17.60
2018-10-12T19:14:16.994Z,17.63
2018-10-12T19:16:45.880Z,17.52
2018-10-12T19:19:15.077Z,17.43
2018-10-12T19:21:44.161Z,17.41
2018-10-12T19:24:13.137Z,17.45
2018-10-12T19:26:42.105Z,17.42
2018-10-12T19:29:10.961Z,17.48
2018-10-12T19:31:40.111Z,17.40
2018-10-12T19:34:08.959Z,17.37
2018-10-12T19:36:38.167Z,17.48
2018-10-12T19:39:08.850Z,17.45
2018-10-12T19:41:37.716Z,17.60
2018-10-12T19:44:07.718Z,17.59
2018-10-12T19:46:36.590Z,17.65
2018-10-12T19:49:05.639Z,17.70
2018-10-12T19:51:34.438Z,17.74
2018-10-12T19:54:03.553Z,17.82
2018-10-12T19:56:32.749Z,17.69
2018-10-12T19:59:01.583Z,17.84
2018-10-12T20:01:30.555Z,17.84
2018-10-12T20:04:00.113Z,17.77
2018-10-12T20:06:28.986Z,17.85
2018-10-12T20:08:57.895Z,17.73
2018-10-12T20:11:26.839Z,17.70
2018-10-12T20:13:55.995Z,17.70
2018-10-12T20:16:25.119Z,17.76
2018-10-12T20:18:53.961Z,17.74
2018-10-12T20:21:22.865Z,17.84
2018-10-12T20:23:51.706Z,17.82
2018-10-12T20:26:20.548Z,17.83
2018-10-12T20:28:49.378Z,17.77
2018-10-12T20:31:18.306Z,17.72
2018-10-12T20:33:47.216Z,17.75
2018-10-12T20:36:16.149Z,17.79
2018-10-12T20:38:44.938Z,17.82
2018-10-12T20:41:13.758Z,17.77
2018-10-12T20:43:42.655Z,17.61
2018-10-12T20:46:11.461Z,17.67
2018-10-12T20:48:40.353Z,17.64
2018-10-12T20:51:09.667Z,17.69
2018-10-12T20:53:38.531Z,17.67
2018-10-12T20:56:07.523Z,17.61
2018-10-12T20:58:36.437Z,17.59
2018-10-12T21:01:05.540Z,17.52
2018-10-12T21:03:34.445Z,17.52
2018-10-12T21:06:03.290Z,17.65
2018-10-12T21:08:32.122Z,17.81
2018-10-12T21:11:01.193Z,17.73
2018-10-12T21:13:30.136Z,17.67
2018-10-12T21:15:58.958Z,17.77
2018-10-12T21:18:28.133Z,17.85
2018-10-12T21:20:56.923Z,17.62
2018-10-12T21:23:25.764Z,17.48
2018-10-12T21:25:54.588Z,17.59
2018-10-12T21:28:23.879Z,17.63
2018-10-12T21:30:52.679Z,17.57
2018-10-12T21:33:21.734Z,17.72
2018-10-12T21:35:50.600Z,17.58
2018-10-12T21:38:19.472Z,17.74
2018-10-12T21:40:48.365Z,17.60
2018-10-12T21:43:17.164Z,17.43
2018-10-12T21:45:46.071Z,17.43
2018-10-12T21:48:14.860Z,17.35
2018-10-12T21:50:43.756Z,17.38
2018-10-12T21:53:12.580Z,17.25
2018-10-12T21:55:41.469Z,17.33
2018-10-12T21:58:10.257Z,17.33
2018-10-12T22:00:39.179Z,17.46
2018-10-12T22:03:08.151Z,17.47
2018-10-12T22:05:37.318Z,17.45
2018-10-12T22:08:06.225Z,17.41
2018-10-12T22:10:35.068Z,17.44
2018-10-12T22:13:03.871Z,17.37
2018-10-12T22:15:33.003Z,17.36
2018-10-12T22:18:01.792Z,17.35
2018-10-12T22:20:30.697Z,17.38
2018-10-12T22:22:59.809Z,17.40
2018-10-12T22:25:28.928Z,17.27
2018-10-12T22:27:57.819Z,17.38
2018-10-12T22:30:26.734Z,17.34
2018-10-12T22:32:55.603Z,17.52
2018-10-12T22:35:24.409Z,17.53
2018-10-12T22:37:53.853Z,17.52
2018-10-12T22:40:22.756Z,17.44
2018-10-12T22:42:53.160Z,17.59
2018-10-12T22:45:23.016Z,17.52
2018-10-12T22:47:51.931Z,17.45
2018-10-12T22:50:20.724Z,17.35
2018-10-12T22:52:49.715Z,17.24
2018-10-12T22:55:18.920Z,17.22
2018-10-12T22:57:47.788Z,17.26
2018-10-12T23:00:16.641Z,17.22
2018-10-12T23:02:45.491Z,17.18
2018-10-12T23:05:14.348Z,17.07
2018-10-12T23:07:43.204Z,17.26
2018-10-12T23:10:11.996Z,17.16
2018-10-12T23:12:41.000Z,17.02
2018-10-12T23:15:09.686Z,16.97
2018-10-12T23:17:38.611Z,16.93
2018-10-12T23:20:07.443Z,16.81
2018-10-12T23:22:36.264Z,16.86
2018-10-12T23:25:05.273Z,16.88
2018-10-12T23:27:34.112Z,16.81
2018-10-12T23:30:03.216Z,16.72
2018-10-12T23:32:32.049Z,16.78
2018-10-12T23:35:00.856Z,16.70
2018-10-12T23:37:29.674Z,16.66
2018-10-12T23:39:58.562Z,16.70
2018-10-12T23:42:27.428Z,16.71
2018-10-12T23:44:56.307Z,16.62
2018-10-12T23:47:25.229Z,16.64
2018-10-12T23:49:54.105Z,16.60
2018-10-12T23:52:22.906Z,16.49
2018-10-12T23:54:51.784Z,16.47
2018-10-12T23:57:20.588Z,16.53
2018-10-12T23:59:49.429Z,16.49
